Time;durP1;ratioP1;P1;durP2;ratioP2;P2;SDS_P1;SDS_P2;PMS_P1;PMS_P2;Temp;Humidity;BMP_temperature;BMP_pressure;BME280_temperature;BME280_humidity;BME280_pressure;Samples;Min_cycle;Max_cycle;Signal;HPM_P1;HPM_P2
2023/08/28 00:02:18;;;;;;;16.85;13.50;;;26.80;87.70;;;;;;6148718;28;83488;-59
2023/08/28 00:05:19;;;;;;;17.17;14.30;;;26.90;87.40;;;;;;6149190;28;83668;-60
2023/08/28 00:08:19;;;;;;;17.30;13.95;;;26.90;87.10;;;;;;6149128;28;83351;-58
2023/08/28 00:11:20;;;;;;;18.23;14.07;;;26.90;87.10;;;;;;6148679;28;83303;-61
2023/08/28 00:14:20;;;;;;;17.67;14.77;;;26.90;87.30;;;;;;6148884;28;83226;-61
2023/08/28 00:17:21;;;;;;;20.20;15.43;;;26.80;87.70;;;;;;6148414;28;83284;-61
2023/08/28 00:20:21;;;;;;;19.20;14.80;;;26.70;87.90;;;;;;6148519;28;84471;-60
2023/08/28 00:23:22;;;;;;;15.48;13.38;;;26.70;88.20;;;;;;6148786;28;84717;-60
2023/08/28 00:26:23;;;;;;;20.00;15.30;;;26.70;88.10;;;;;;6148354;28;83123;-61
2023/08/28 00:29:23;;;;;;;17.45;15.23;;;26.80;87.50;;;;;;6138027;28;84752;-59
2023/08/28 00:32:24;;;;;;;21.08;16.27;;;26.80;88.10;;;;;;6147052;28;86310;-59
2023/08/28 00:35:24;;;;;;;17.55;14.98;;;26.70;88.80;;;;;;6147545;28;84073;-60
2023/08/28 00:38:25;;;;;;;17.15;14.32;;;26.70;88.50;;;;;;6137125;28;85805;-60
2023/08/28 00:41:25;;;;;;;19.58;15.25;;;26.70;88.60;;;;;;6161554;28;85735;-60
2023/08/28 00:44:26;;;;;;;19.73;14.38;;;26.70;88.40;;;;;;6148187;28;85502;-60
2023/08/28 00:47:27;;;;;;;18.90;15.38;;;26.80;88.00;;;;;;6134920;28;86012;-59
2023/08/28 00:50:27;;;;;;;20.15;16.58;;;26.80;87.40;;;;;;6145867;28;86175;-59
2023/08/28 00:53:28;;;;;;;19.17;15.80;;;26.90;87.30;;;;;;6147153;28;84723;-60
2023/08/28 00:56:28;;;;;;;20.15;16.45;;;26.90;86.90;;;;;;6146200;28;86120;-60
2023/08/28 00:59:29;;;;;;;18.58;15.68;;;27.00;87.00;;;;;;6143339;28;82933;-60
2023/08/28 01:02:29;;;;;;;25.15;17.55;;;26.90;87.10;;;;;;6145338;28;85862;-59
2023/08/28 01:05:31;;;;;;;21.40;16.10;;;26.90;86.80;;;;;;6149596;28;88143;-60
2023/08/28 01:08:31;;;;;;;21.83;17.35;;;26.90;86.90;;;;;;6137536;28;85173;-61
2023/08/28 01:11:32;;;;;;;21.95;18.60;;;26.90;86.60;;;;;;6146581;28;86200;-60
2023/08/28 01:14:33;;;;;;;24.17;19.35;;;26.80;87.40;;;;;;6144798;28;85709;-60
2023/08/28 01:17:34;;;;;;;23.23;19.08;;;26.90;87.00;;;;;;6147647;28;83421;-61
2023/08/28 01:20:35;;;;;;;28.10;21.08;;;26.90;86.70;;;;;;6131170;28;84705;-60
2023/08/28 01:23:36;;;;;;;31.95;22.63;;;26.90;87.00;;;;;;6146532;28;84568;-61
2023/08/28 01:26:36;;;;;;;39.70;27.27;;;26.90;86.80;;;;;;6145702;28;85143;-60
2023/08/28 01:29:37;;;;;;;38.03;29.27;;;26.90;86.40;;;;;;6148370;28;83038;-60
2023/08/28 01:32:37;;;;;;;41.90;28.73;;;26.90;86.30;;;;;;6137608;28;84277;-60
2023/08/28 01:35:38;;;;;;;37.97;26.23;;;26.90;86.30;;;;;;6147386;28;85602;-61
2023/08/28 01:38:38;;;;;;;39.63;27.27;;;26.90;86.40;;;;;;6147542;28;83138;-60
2023/08/28 01:41:39;;;;;;;34.83;26.40;;;26.80;86.10;;;;;;6147199;28;83110;-59
2023/08/28 01:44:39;;;;;;;35.65;26.52;;;26.80;86.10;;;;;;6146077;28;85735;-59
2023/08/28 01:47:40;;;;;;;32.60;24.55;;;26.80;85.60;;;;;;6145452;28;84696;-60
2023/08/28 01:50:41;;;;;;;40.70;26.15;;;26.80;85.80;;;;;;6144305;28;83340;-60
2023/08/28 01:53:41;;;;;;;35.80;23.98;;;26.80;85.40;;;;;;6149573;28;84558;-62
2023/08/28 01:56:42;;;;;;;34.53;22.15;;;26.90;85.10;;;;;;6152967;28;83245;-60
2023/08/28 01:59:42;;;;;;;30.13;20.85;;;26.90;84.40;;;;;;6150064;28;84947;-67
2023/08/28 02:02:43;;;;;;;31.38;19.55;;;26.90;84.10;;;;;;6150770;28;85991;-68
2023/08/28 02:05:43;;;;;;;28.63;18.02;;;26.90;83.60;;;;;;6150273;28;85980;-69
2023/08/28 02:08:44;;;;;;;31.50;17.85;;;26.80;83.30;;;;;;6145049;28;85618;-69
2023/08/28 02:11:45;;;;;;;22.33;16.85;;;26.80;83.20;;;;;;6145616;28;83480;-65
2023/08/28 02:14:45;;;;;;;25.33;16.65;;;26.80;82.90;;;;;;6150755;28;85167;-69
2023/08/28 02:17:46;;;;;;;20.15;14.40;;;26.70;82.60;;;;;;6150080;28;85864;-69
2023/08/28 02:20:46;;;;;;;19.55;13.32;;;26.70;82.20;;;;;;6149603;28;86701;-69
2023/08/28 02:23:47;;;;;;;17.83;12.25;;;26.70;81.80;;;;;;6150638;28;83056;-69
2023/08/28 02:26:47;;;;;;;16.60;9.52;;;26.70;81.20;;;;;;6150474;28;85169;-67
2023/08/28 02:29:48;;;;;;;10.45;6.97;;;26.70;79.90;;;;;;6152783;28;85771;-69
2023/08/28 02:32:49;;;;;;;6.10;4.43;;;26.70;78.20;;;;;;6151453;28;81514;-67
2023/08/28 02:35:49;;;;;;;4.35;3.38;;;26.60;76.00;;;;;;6153684;28;80533;-67
2023/08/28 02:38:50;;;;;;;3.20;2.50;;;26.50;75.00;;;;;;6152842;28;81974;-61
2023/08/28 02:41:50;;;;;;;3.05;2.33;;;26.40;74.10;;;;;;6153958;28;80361;-61
2023/08/28 02:44:51;;;;;;;4.32;2.35;;;26.40;73.70;;;;;;6152480;28;82250;-63
2023/08/28 02:47:51;;;;;;;2.95;2.40;;;26.40;73.70;;;;;;6151950;28;87751;-62
2023/08/28 02:50:52;;;;;;;2.63;2.08;;;26.50;73.50;;;;;;6147262;28;81558;-62
2023/08/28 02:53:53;;;;;;;3.20;1.77;;;26.50;72.80;;;;;;6149151;28;82579;-60
2023/08/28 02:56:53;;;;;;;2.47;1.50;;;26.50;72.60;;;;;;6152623;28;83587;-71
2023/08/28 02:59:54;;;;;;;1.83;1.52;;;26.60;72.30;;;;;;6154713;28;81011;-73
2023/08/28 03:02:54;;;;;;;3.03;1.38;;;26.50;71.80;;;;;;6154439;28;81020;-73
2023/08/28 03:05:57;;;;;;;1.55;1.15;;;26.50;71.20;;;;;;6151892;28;82732;-71
2023/08/28 03:08:57;;;;;;;1.60;1.50;;;26.50;70.80;;;;;;6144730;28;83919;-69
2023/08/28 03:11:58;;;;;;;1.00;1.00;;;26.50;70.40;;;;;;6151987;28;80068;-74
2023/08/28 03:14:58;;;;;;;1.92;1.00;;;26.40;69.80;;;;;;6168384;28;82957;-61
2023/08/28 03:17:59;;;;;;;0.73;0.73;;;26.40;70.10;;;;;;6152954;28;83096;-61
2023/08/28 03:21:00;;;;;;;1.17;1.00;;;26.40;70.10;;;;;;6168771;28;83357;-60
2023/08/28 03:24:00;;;;;;;1.73;1.15;;;26.50;70.20;;;;;;6151780;28;80112;-61
2023/08/28 03:27:01;;;;;;;1.70;1.00;;;26.40;70.30;;;;;;6151730;28;83189;-62
2023/08/28 03:30:02;;;;;;;1.58;1.00;;;26.50;70.50;;;;;;6152910;28;83445;-63
2023/08/28 03:33:03;;;;;;;1.08;0.90;;;26.50;69.90;;;;;;6144165;28;84336;-62
2023/08/28 03:36:05;;;;;;;1.38;0.70;;;26.60;70.60;;;;;;6151182;28;82984;-60
2023/08/28 03:39:05;;;;;;;1.85;0.75;;;26.50;70.10;;;;;;6151604;28;83784;-60
2023/08/28 03:42:06;;;;;;;0.90;0.90;;;26.50;70.00;;;;;;6151981;28;83889;-61
2023/08/28 03:45:06;;;;;;;1.25;1.00;;;26.50;70.30;;;;;;6151609;28;84564;-63
2023/08/28 03:48:07;;;;;;;1.80;1.33;;;26.50;70.20;;;;;;6154000;28;80353;-60
2023/08/28 03:51:07;;;;;;;1.30;1.20;;;26.50;70.20;;;;;;6163985;28;83587;-61
2023/08/28 03:54:08;;;;;;;2.63;1.27;;;26.60;70.40;;;;;;6153238;28;80977;-61
2023/08/28 03:57:10;;;;;;;3.35;1.00;;;26.40;70.00;;;;;;6152849;28;80853;-60
2023/08/28 04:00:13;;;;;;;1.50;1.27;;;26.20;71.30;;;;;;6151227;28;81617;-61
2023/08/28 04:03:16;;;;;;;1.30;1.20;;;26.20;71.80;;;;;;6150447;28;80846;-61
2023/08/28 04:06:16;;;;;;;2.63;1.58;;;26.30;72.10;;;;;;6153181;28;88478;-62
2023/08/28 04:09:17;;;;;;;2.92;1.77;;;26.30;71.90;;;;;;6152632;28;81944;-60
2023/08/28 04:12:17;;;;;;;4.75;2.30;;;26.40;72.20;;;;;;6166728;28;80698;-58
2023/08/28 04:15:19;;;;;;;3.55;2.15;;;26.00;72.90;;;;;;6150667;28;82662;-59
2023/08/28 04:18:20;;;;;;;2.10;1.90;;;26.10;74.10;;;;;;6151108;28;82922;-56
2023/08/28 04:21:22;;;;;;;5.55;2.25;;;26.20;73.90;;;;;;6150528;28;83438;-60
2023/08/28 04:24:23;;;;;;;3.97;2.42;;;26.20;73.50;;;;;;6152925;28;81517;-57
2023/08/28 04:27:24;;;;;;;2.58;2.00;;;26.20;73.60;;;;;;6141290;28;83539;-59
2023/08/28 04:30:25;;;;;;;5.53;2.65;;;26.30;74.10;;;;;;6150759;28;80309;-60
2023/08/28 04:33:26;;;;;;;4.05;3.20;;;26.30;73.50;;;;;;6147111;28;81317;-57
2023/08/28 04:36:27;;;;;;;6.53;2.65;;;26.30;73.70;;;;;;6149060;28;81232;-58
2023/08/28 04:39:27;;;;;;;6.28;2.72;;;26.40;73.80;;;;;;6133844;28;82718;-58
2023/08/28 04:42:28;;;;;;;3.95;2.97;;;26.40;73.40;;;;;;6137833;28;84471;-58
2023/08/28 04:45:28;;;;;;;8.00;3.47;;;26.40;73.70;;;;;;6147760;28;80874;-54
2023/08/28 04:48:29;;;;;;;4.45;2.97;;;26.40;73.20;;;;;;6149213;28;83502;-59
2023/08/28 04:51:31;;;;;;;4.53;3.42;;;26.40;72.80;;;;;;6149593;28;83432;-57
2023/08/28 04:54:32;;;;;;;5.05;3.30;;;26.40;72.80;;;;;;6140294;28;83620;-58
2023/08/28 04:57:32;;;;;;;11.48;3.40;;;26.50;72.40;;;;;;6149368;28;82588;-59
2023/08/28 05:00:33;;;;;;;7.47;3.15;;;26.50;73.00;;;;;;6152335;28;83571;-59
2023/08/28 05:03:33;;;;;;;6.07;3.50;;;26.50;72.50;;;;;;6149207;28;81382;-67
2023/08/28 05:06:34;;;;;;;9.10;4.07;;;26.50;72.20;;;;;;6147541;28;83438;-69
2023/08/28 05:09:35;;;;;;;6.75;3.20;;;26.40;72.50;;;;;;6148945;28;81997;-66
2023/08/28 05:12:35;;;;;;;6.55;3.33;;;26.40;72.60;;;;;;6149350;28;83024;-66
2023/08/28 05:15:36;;;;;;;5.43;3.30;;;26.50;72.70;;;;;;6149616;28;81568;-69
2023/08/28 05:18:36;;;;;;;7.90;3.40;;;26.50;72.50;;;;;;6125484;28;82948;-63
2023/08/28 05:21:37;;;;;;;6.63;3.20;;;26.50;73.40;;;;;;6140552;28;83681;-58
2023/08/28 05:24:38;;;;;;;4.97;3.13;;;26.60;73.20;;;;;;6143435;28;80553;-61
2023/08/28 05:27:38;;;;;;;11.63;3.83;;;26.60;72.70;;;;;;6152959;28;81037;-59
2023/08/28 05:30:39;;;;;;;10.63;3.00;;;26.60;72.80;;;;;;6150763;28;80292;-60
2023/08/28 05:33:40;;;;;;;5.60;3.35;;;26.70;72.80;;;;;;6159442;28;83212;-59
2023/08/28 05:36:40;;;;;;;6.05;2.97;;;26.70;72.80;;;;;;6153117;28;83150;-60
2023/08/28 05:39:41;;;;;;;5.47;2.58;;;26.70;72.90;;;;;;6143872;28;83007;-73
2023/08/28 05:42:41;;;;;;;7.13;2.95;;;26.70;73.30;;;;;;6156499;28;83085;-66
2023/08/28 05:45:42;;;;;;;5.60;2.50;;;26.80;73.40;;;;;;6133307;28;83382;-69
2023/08/28 05:48:42;;;;;;;7.82;3.00;;;26.80;73.80;;;;;;6152611;28;81629;-65
2023/08/28 05:51:43;;;;;;;7.32;2.60;;;26.80;73.40;;;;;;6132773;28;81645;-64
2023/08/28 05:54:44;;;;;;;14.73;3.20;;;26.80;72.80;;;;;;6144655;28;81275;-63
2023/08/28 05:57:44;;;;;;;4.20;2.40;;;26.80;72.90;;;;;;6158012;28;83282;-66
2023/08/28 06:00:45;;;;;;;4.47;2.25;;;26.80;72.40;;;;;;6153827;28;80786;-62
2023/08/28 06:03:46;;;;;;;8.73;2.55;;;26.80;72.10;;;;;;6137606;28;83894;-71
2023/08/28 06:06:47;;;;;;;7.63;2.30;;;26.80;71.90;;;;;;6152416;28;80504;-68
2023/08/28 06:09:49;;;;;;;5.65;2.55;;;26.80;71.60;;;;;;6151250;28;83430;-65
2023/08/28 06:12:50;;;;;;;4.82;2.60;;;26.80;72.30;;;;;;6161680;28;82898;-68
2023/08/28 06:15:51;;;;;;;5.95;2.72;;;26.90;72.10;;;;;;6080160;28;83292;-64
2023/08/28 06:18:51;;;;;;;9.98;2.88;;;26.90;72.30;;;;;;6025337;28;85906;-60
2023/08/28 06:21:52;;;;;;;9.10;2.60;;;26.90;72.10;;;;;;6019674;28;83431;-60
2023/08/28 06:24:52;;;;;;;6.28;2.28;;;27.00;72.00;;;;;;6019274;28;83392;-60
2023/08/28 06:27:54;;;;;;;6.07;2.70;;;27.00;71.90;;;;;;6034059;28;83721;-60
2023/08/28 06:30:55;;;;;;;7.60;2.45;;;27.00;71.60;;;;;;6033959;28;86355;-61
2023/08/28 06:33:55;;;;;;;7.13;3.17;;;27.00;71.20;;;;;;6003039;28;82746;-60
2023/08/28 06:36:56;;;;;;;6.35;2.97;;;26.90;71.20;;;;;;6031536;28;82067;-60
2023/08/28 06:39:57;;;;;;;3.38;2.28;;;26.90;70.70;;;;;;6001385;28;82580;-60
2023/08/28 06:42:58;;;;;;;4.75;2.40;;;26.90;70.60;;;;;;6025349;28;86216;-60
2023/08/28 06:45:58;;;;;;;3.53;2.55;;;26.80;70.30;;;;;;6029671;28;83400;-59
2023/08/28 06:48:59;;;;;;;2.92;2.30;;;26.80;70.30;;;;;;6022149;28;81181;-60
2023/08/28 06:51:59;;;;;;;5.43;2.58;;;26.90;70.40;;;;;;6015030;28;82324;-60
2023/08/28 06:55:00;;;;;;;3.47;2.40;;;26.90;70.80;;;;;;6017893;28;82290;-59
2023/08/28 06:58:00;;;;;;;5.93;2.63;;;26.90;70.50;;;;;;6023414;28;82408;-59
2023/08/28 07:01:01;;;;;;;7.85;2.33;;;26.90;70.70;;;;;;5995293;28;83152;-58
2023/08/28 07:04:04;;;;;;;6.72;2.10;;;26.90;70.50;;;;;;6024413;28;84287;-59
2023/08/28 07:07:05;;;;;;;3.60;2.22;;;26.90;70.20;;;;;;6026904;28;80457;-59
2023/08/28 07:10:06;;;;;;;5.68;2.33;;;26.90;69.90;;;;;;6020769;28;81654;-60
2023/08/28 07:13:07;;;;;;;4.13;2.30;;;26.90;69.90;;;;;;6017023;28;83333;-60
2023/08/28 07:16:07;;;;;;;5.03;2.53;;;26.90;69.30;;;;;;6028425;28;82400;-59
2023/08/28 07:19:08;;;;;;;3.55;2.00;;;26.90;69.50;;;;;;6028101;28;81755;-58
2023/08/28 07:22:08;;;;;;;5.18;1.90;;;26.90;69.10;;;;;;6033336;28;82525;-61
2023/08/28 07:25:09;;;;;;;3.20;1.77;;;26.90;69.30;;;;;;6026323;28;81893;-58
2023/08/28 07:28:09;;;;;;;6.35;2.00;;;26.90;69.20;;;;;;6023132;28;82390;-58
2023/08/28 07:31:10;;;;;;;2.92;1.70;;;26.90;69.30;;;;;;6023184;28;82339;-57
2023/08/28 07:34:11;;;;;;;5.35;2.20;;;26.90;69.30;;;;;;6019053;28;80779;-58
2023/08/28 07:37:11;;;;;;;7.40;2.10;;;26.90;68.90;;;;;;6018568;28;86101;-59
2023/08/28 07:40:12;;;;;;;3.13;1.75;;;26.90;68.90;;;;;;6023762;28;82394;-62
2023/08/28 07:43:13;;;;;;;5.13;2.00;;;26.90;69.30;;;;;;6012248;28;82252;-59
2023/08/28 07:46:13;;;;;;;3.83;1.90;;;26.90;69.90;;;;;;6030050;28;81628;-60
2023/08/28 07:49:14;;;;;;;4.40;1.75;;;26.90;68.80;;;;;;6029457;28;82761;-67
2023/08/28 07:52:14;;;;;;;5.20;1.70;;;26.80;69.00;;;;;;6023714;28;82252;-67
2023/08/28 07:55:15;;;;;;;3.47;1.70;;;26.90;69.00;;;;;;6034240;28;81866;-65
2023/08/28 07:58:15;;;;;;;6.82;1.83;;;26.90;69.00;;;;;;6029914;28;85236;-67
